sensor_id;sensor_type;location;lat;lon;timestamp;P1;durP1;ratioP1;P2;durP2;ratioP2
26106;SDS011;13866;50.748;12.630;2023-08-24T00:01:16;4.33;;;4.13;;
26106;SDS011;13866;50.748;12.630;2023-08-24T00:03:43;4.67;;;4.37;;
26106;SDS011;13866;50.748;12.630;2023-08-24T00:06:09;20.93;;;5.00;;
26106;SDS011;13866;50.748;12.630;2023-08-24T00:08:35;4.37;;;4.17;;
26106;SDS011;13866;50.748;12.630;2023-08-24T00:11:02;9.77;;;4.70;;
26106;SDS011;13866;50.748;12.630;2023-08-24T00:13:27;4.50;;;4.40;;
26106;SDS011;13866;50.748;12.630;2023-08-24T00:15:53;4.50;;;4.40;;
26106;SDS011;13866;50.748;12.630;2023-08-24T00:18:19;7.93;;;3.97;;
26106;SDS011;13866;50.748;12.630;2023-08-24T00:20:47;4.47;;;4.17;;
26106;SDS011;13866;50.748;12.630;2023-08-24T00:23:13;5.10;;;4.70;;
26106;SDS011;13866;50.748;12.630;2023-08-24T00:25:38;4.67;;;4.40;;
26106;SDS011;13866;50.748;12.630;2023-08-24T00:28:06;16.87;;;4.83;;
26106;SDS011;13866;50.748;12.630;2023-08-24T00:30:31;5.73;;;5.30;;
26106;SDS011;13866;50.748;12.630;2023-08-24T00:32:57;4.53;;;4.30;;
26106;SDS011;13866;50.748;12.630;2023-08-24T00:35:23;4.80;;;4.60;;
26106;SDS011;13866;50.748;12.630;2023-08-24T00:37:48;3.93;;;3.73;;
26106;SDS011;13866;50.748;12.630;2023-08-24T00:40:15;5.23;;;4.83;;
26106;SDS011;13866;50.748;12.630;2023-08-24T00:42:42;9.50;;;5.20;;
26106;SDS011;13866;50.748;12.630;2023-08-24T00:45:10;10.47;;;5.17;;
26106;SDS011;13866;50.748;12.630;2023-08-24T00:47:41;5.07;;;4.90;;
26106;SDS011;13866;50.748;12.630;2023-08-24T00:50:09;5.40;;;4.97;;
26106;SDS011;13866;50.748;12.630;2023-08-24T00:52:38;6.43;;;4.83;;
26106;SDS011;13866;50.748;12.630;2023-08-24T00:55:06;5.87;;;5.57;;
26106;SDS011;13866;50.748;12.630;2023-08-24T00:57:32;5.60;;;5.30;;
26106;SDS011;13866;50.748;12.630;2023-08-24T01:00:03;10.23;;;5.93;;
26106;SDS011;13866;50.748;12.630;2023-08-24T01:02:31;4.50;;;4.20;;
26106;SDS011;13866;50.748;12.630;2023-08-24T01:04:56;4.23;;;4.13;;
26106;SDS011;13866;50.748;12.630;2023-08-24T01:07:23;5.20;;;5.00;;
26106;SDS011;13866;50.748;12.630;2023-08-24T01:09:50;4.50;;;4.40;;
26106;SDS011;13866;50.748;12.630;2023-08-24T01:15:12;4.87;;;4.67;;
26106;SDS011;13866;50.748;12.630;2023-08-24T01:17:42;5.47;;;5.00;;
26106;SDS011;13866;50.748;12.630;2023-08-24T01:20:09;5.50;;;5.20;;
26106;SDS011;13866;50.748;12.630;2023-08-24T01:22:55;5.47;;;5.17;;
26106;SDS011;13866;50.748;12.630;2023-08-24T01:25:42;4.67;;;4.57;;
26106;SDS011;13866;50.748;12.630;2023-08-24T01:28:14;5.53;;;5.03;;
26106;SDS011;13866;50.748;12.630;2023-08-24T01:30:41;5.03;;;4.80;;
26106;SDS011;13866;50.748;12.630;2023-08-24T01:33:09;5.17;;;5.03;;
26106;SDS011;13866;50.748;12.630;2023-08-24T01:35:37;5.07;;;4.87;;
26106;SDS011;13866;50.748;12.630;2023-08-24T01:38:02;5.40;;;5.17;;
26106;SDS011;13866;50.748;12.630;2023-08-24T01:43:05;5.50;;;5.10;;
26106;SDS011;13866;50.748;12.630;2023-08-24T01:45:34;6.00;;;5.43;;
26106;SDS011;13866;50.748;12.630;2023-08-24T01:48:00;5.87;;;5.47;;
26106;SDS011;13866;50.748;12.630;2023-08-24T01:50:28;5.87;;;5.40;;
26106;SDS011;13866;50.748;12.630;2023-08-24T01:52:55;4.73;;;4.40;;
26106;SDS011;13866;50.748;12.630;2023-08-24T01:55:21;9.97;;;6.00;;
26106;SDS011;13866;50.748;12.630;2023-08-24T01:57:47;5.20;;;5.10;;
26106;SDS011;13866;50.748;12.630;2023-08-24T02:00:13;6.07;;;5.93;;
26106;SDS011;13866;50.748;12.630;2023-08-24T02:02:39;5.33;;;5.13;;
26106;SDS011;13866;50.748;12.630;2023-08-24T02:05:04;5.17;;;4.80;;
26106;SDS011;13866;50.748;12.630;2023-08-24T02:07:30;4.97;;;4.60;;
26106;SDS011;13866;50.748;12.630;2023-08-24T02:09:56;5.80;;;5.30;;
26106;SDS011;13866;50.748;12.630;2023-08-24T02:12:21;5.63;;;4.70;;
26106;SDS011;13866;50.748;12.630;2023-08-24T02:14:47;5.97;;;5.67;;
26106;SDS011;13866;50.748;12.630;2023-08-24T02:17:12;5.27;;;5.07;;
26106;SDS011;13866;50.748;12.630;2023-08-24T02:19:39;5.20;;;5.00;;
26106;SDS011;13866;50.748;12.630;2023-08-24T02:22:06;5.67;;;4.93;;
26106;SDS011;13866;50.748;12.630;2023-08-24T02:24:31;5.00;;;4.80;;
26106;SDS011;13866;50.748;12.630;2023-08-24T02:26:57;5.77;;;5.40;;
26106;SDS011;13866;50.748;12.630;2023-08-24T02:29:22;5.93;;;5.53;;
26106;SDS011;13866;50.748;12.630;2023-08-24T02:31:49;5.17;;;4.97;;
26106;SDS011;13866;50.748;12.630;2023-08-24T02:34:15;6.50;;;5.07;;
26106;SDS011;13866;50.748;12.630;2023-08-24T02:36:41;5.17;;;5.07;;
26106;SDS011;13866;50.748;12.630;2023-08-24T02:39:07;6.07;;;5.70;;
26106;SDS011;13866;50.748;12.630;2023-08-24T02:41:33;10.93;;;5.50;;
26106;SDS011;13866;50.748;12.630;2023-08-24T02:44:00;7.33;;;5.30;;
26106;SDS011;13866;50.748;12.630;2023-08-24T02:46:25;5.50;;;5.30;;
26106;SDS011;13866;50.748;12.630;2023-08-24T02:48:51;5.73;;;5.20;;
26106;SDS011;13866;50.748;12.630;2023-08-24T02:51:16;6.10;;;5.60;;
26106;SDS011;13866;50.748;12.630;2023-08-24T02:53:42;6.27;;;5.90;;
26106;SDS011;13866;50.748;12.630;2023-08-24T02:56:07;5.10;;;4.97;;
26106;SDS011;13866;50.748;12.630;2023-08-24T02:58:33;5.80;;;5.57;;
26106;SDS011;13866;50.748;12.630;2023-08-24T03:00:58;5.93;;;5.60;;
26106;SDS011;13866;50.748;12.630;2023-08-24T03:03:24;4.47;;;4.37;;
26106;SDS011;13866;50.748;12.630;2023-08-24T03:08:18;6.03;;;5.73;;
26106;SDS011;13866;50.748;12.630;2023-08-24T03:10:44;8.63;;;5.60;;
26106;SDS011;13866;50.748;12.630;2023-08-24T03:13:09;4.70;;;4.50;;
26106;SDS011;13866;50.748;12.630;2023-08-24T03:15:35;6.80;;;6.50;;
26106;SDS011;13866;50.748;12.630;2023-08-24T03:18:00;5.80;;;5.53;;
26106;SDS011;13866;50.748;12.630;2023-08-24T03:20:26;5.87;;;5.57;;
26106;SDS011;13866;50.748;12.630;2023-08-24T03:22:51;6.40;;;6.00;;
26106;SDS011;13866;50.748;12.630;2023-08-24T03:25:17;5.20;;;5.00;;
26106;SDS011;13866;50.748;12.630;2023-08-24T03:27:42;5.23;;;4.93;;
26106;SDS011;13866;50.748;12.630;2023-08-24T03:30:08;6.03;;;5.63;;
26106;SDS011;13866;50.748;12.630;2023-08-24T03:32:34;8.03;;;6.53;;
26106;SDS011;13866;50.748;12.630;2023-08-24T03:34:59;6.47;;;6.10;;
26106;SDS011;13866;50.748;12.630;2023-08-24T03:37:25;5.97;;;5.77;;
26106;SDS011;13866;50.748;12.630;2023-08-24T03:39:50;5.73;;;5.37;;
26106;SDS011;13866;50.748;12.630;2023-08-24T03:42:16;6.70;;;6.40;;
26106;SDS011;13866;50.748;12.630;2023-08-24T03:44:42;5.73;;;5.50;;
26106;SDS011;13866;50.748;12.630;2023-08-24T03:47:07;5.50;;;5.40;;
26106;SDS011;13866;50.748;12.630;2023-08-24T03:49:33;5.53;;;5.20;;
26106;SDS011;13866;50.748;12.630;2023-08-24T03:51:59;6.10;;;5.50;;
26106;SDS011;13866;50.748;12.630;2023-08-24T03:54:24;5.50;;;5.40;;
26106;SDS011;13866;50.748;12.630;2023-08-24T03:56:50;6.33;;;5.63;;
26106;SDS011;13866;50.748;12.630;2023-08-24T03:59:16;5.50;;;5.13;;
26106;SDS011;13866;50.748;12.630;2023-08-24T04:01:42;6.90;;;6.40;;
26106;SDS011;13866;50.748;12.630;2023-08-24T04:04:07;7.80;;;5.50;;
26106;SDS011;13866;50.748;12.630;2023-08-24T04:06:33;9.23;;;5.30;;
26106;SDS011;13866;50.748;12.630;2023-08-24T04:08:58;5.00;;;4.90;;
26106;SDS011;13866;50.748;12.630;2023-08-24T04:11:24;5.77;;;5.43;;
26106;SDS011;13866;50.748;12.630;2023-08-24T04:13:49;5.67;;;5.57;;
26106;SDS011;13866;50.748;12.630;2023-08-24T04:16:15;9.50;;;5.70;;
26106;SDS011;13866;50.748;12.630;2023-08-24T04:18:40;6.10;;;5.43;;
26106;SDS011;13866;50.748;12.630;2023-08-24T04:21:06;5.90;;;5.80;;
26106;SDS011;13866;50.748;12.630;2023-08-24T04:23:31;6.03;;;5.73;;
26106;SDS011;13866;50.748;12.630;2023-08-24T04:25:57;5.97;;;5.70;;
26106;SDS011;13866;50.748;12.630;2023-08-24T04:28:22;7.67;;;5.80;;
26106;SDS011;13866;50.748;12.630;2023-08-24T04:30:51;5.60;;;5.40;;
26106;SDS011;13866;50.748;12.630;2023-08-24T04:33:18;6.37;;;6.10;;
26106;SDS011;13866;50.748;12.630;2023-08-24T04:35:45;10.50;;;5.90;;
26106;SDS011;13866;50.748;12.630;2023-08-24T04:38:15;6.07;;;5.67;;
26106;SDS011;13866;50.748;12.630;2023-08-24T04:40:51;5.90;;;5.47;;
26106;SDS011;13866;50.748;12.630;2023-08-24T04:43:19;6.73;;;6.47;;
26106;SDS011;13866;50.748;12.630;2023-08-24T04:45:46;4.83;;;4.63;;
26106;SDS011;13866;50.748;12.630;2023-08-24T04:48:13;4.93;;;4.83;;
26106;SDS011;13866;50.748;12.630;2023-08-24T04:50:39;6.07;;;5.93;;
26106;SDS011;13866;50.748;12.630;2023-08-24T04:53:04;5.70;;;5.60;;
26106;SDS011;13866;50.748;12.630;2023-08-24T04:55:30;5.87;;;5.57;;
26106;SDS011;13866;50.748;12.630;2023-08-24T04:57:56;5.70;;;5.60;;
26106;SDS011;13866;50.748;12.630;2023-08-24T05:00:21;5.93;;;5.40;;
26106;SDS011;13866;50.748;12.630;2023-08-24T05:02:47;6.37;;;6.10;;
26106;SDS011;13866;50.748;12.630;2023-08-24T05:05:13;6.00;;;5.90;;
26106;SDS011;13866;50.748;12.630;2023-08-24T05:07:39;6.60;;;6.10;;
26106;SDS011;13866;50.748;12.630;2023-08-24T05:10:05;5.50;;;5.30;;
26106;SDS011;13866;50.748;12.630;2023-08-24T05:12:31;6.60;;;6.03;;
26106;SDS011;13866;50.748;12.630;2023-08-24T05:14:58;6.30;;;6.03;;
26106;SDS011;13866;50.748;12.630;2023-08-24T05:17:24;5.77;;;5.50;;
26106;SDS011;13866;50.748;12.630;2023-08-24T05:19:51;5.90;;;5.70;;
26106;SDS011;13866;50.748;12.630;2023-08-24T05:22:18;6.30;;;5.93;;
26106;SDS011;13866;50.748;12.630;2023-08-24T05:24:44;6.70;;;6.27;;
26106;SDS011;13866;50.748;12.630;2023-08-24T05:27:09;5.80;;;5.60;;
26106;SDS011;13866;50.748;12.630;2023-08-24T05:29:35;9.40;;;5.63;;
26106;SDS011;13866;50.748;12.630;2023-08-24T05:32:00;12.03;;;6.37;;
26106;SDS011;13866;50.748;12.630;2023-08-24T05:34:26;7.50;;;6.97;;
26106;SDS011;13866;50.748;12.630;2023-08-24T05:36:51;10.00;;;8.07;;
26106;SDS011;13866;50.748;12.630;2023-08-24T05:39:17;6.97;;;6.67;;
26106;SDS011;13866;50.748;12.630;2023-08-24T05:41:42;5.93;;;5.83;;
26106;SDS011;13866;50.748;12.630;2023-08-24T05:44:08;6.20;;;5.90;;
26106;SDS011;13866;50.748;12.630;2023-08-24T05:46:34;7.13;;;6.63;;
26106;SDS011;13866;50.748;12.630;2023-08-24T05:48:59;12.30;;;6.10;;
26106;SDS011;13866;50.748;12.630;2023-08-24T05:51:25;9.50;;;6.50;;
26106;SDS011;13866;50.748;12.630;2023-08-24T05:53:50;14.43;;;5.50;;
26106;SDS011;13866;50.748;12.630;2023-08-24T05:56:20;5.83;;;5.50;;
26106;SDS011;13866;50.748;12.630;2023-08-24T05:58:47;5.40;;;5.20;;
26106;SDS011;13866;50.748;12.630;2023-08-24T06:01:12;5.63;;;5.10;;
26106;SDS011;13866;50.748;12.630;2023-08-24T06:03:38;6.33;;;5.50;;
26106;SDS011;13866;50.748;12.630;2023-08-24T06:06:03;6.40;;;6.00;;
26106;SDS011;13866;50.748;12.630;2023-08-24T06:08:29;7.53;;;5.47;;
26106;SDS011;13866;50.748;12.630;2023-08-24T06:10:55;5.73;;;5.40;;
26106;SDS011;13866;50.748;12.630;2023-08-24T06:13:21;5.73;;;5.30;;
26106;SDS011;13866;50.748;12.630;2023-08-24T06:15:47;7.87;;;6.00;;
26106;SDS011;13866;50.748;12.630;2023-08-24T06:18:12;6.07;;;5.70;;
26106;SDS011;13866;50.748;12.630;2023-08-24T06:20:38;11.73;;;6.33;;
26106;SDS011;13866;50.748;12.630;2023-08-24T06:23:04;7.43;;;6.83;;
26106;SDS011;13866;50.748;12.630;2023-08-24T06:25:30;11.20;;;8.03;;
26106;SDS011;13866;50.748;12.630;2023-08-24T06:27:56;9.47;;;6.70;;
26106;SDS011;13866;50.748;12.630;2023-08-24T06:30:23;7.30;;;6.57;;
26106;SDS011;13866;50.748;12.630;2023-08-24T06:32:49;8.40;;;7.63;;
26106;SDS011;13866;50.748;12.630;2023-08-24T06:35:15;5.70;;;5.40;;
26106;SDS011;13866;50.748;12.630;2023-08-24T06:37:40;5.63;;;4.67;;
26106;SDS011;13866;50.748;12.630;2023-08-24T06:40:06;5.70;;;5.40;;
26106;SDS011;13866;50.748;12.630;2023-08-24T06:42:32;5.30;;;5.00;;
26106;SDS011;13866;50.748;12.630;2023-08-24T06:44:58;5.20;;;5.00;;
26106;SDS011;13866;50.748;12.630;2023-08-24T06:47:23;5.40;;;5.00;;
26106;SDS011;13866;50.748;12.630;2023-08-24T06:49:50;10.53;;;5.03;;
26106;SDS011;13866;50.748;12.630;2023-08-24T06:52:15;3.90;;;3.60;;
26106;SDS011;13866;50.748;12.630;2023-08-24T06:54:41;7.13;;;4.30;;
26106;SDS011;13866;50.748;12.630;2023-08-24T06:57:07;4.00;;;3.67;;
26106;SDS011;13866;50.748;12.630;2023-08-24T06:59:32;4.00;;;3.90;;
26106;SDS011;13866;50.748;12.630;2023-08-24T07:01:58;3.83;;;3.53;;
26106;SDS011;13866;50.748;12.630;2023-08-24T07:04:24;6.20;;;4.40;;
26106;SDS011;13866;50.748;12.630;2023-08-24T07:06:50;4.00;;;3.80;;
26106;SDS011;13866;50.748;12.630;2023-08-24T07:09:16;3.63;;;3.53;;
26106;SDS011;13866;50.748;12.630;2023-08-24T07:11:43;3.50;;;3.30;;
26106;SDS011;13866;50.748;12.630;2023-08-24T07:14:09;4.30;;;3.20;;
26106;SDS011;13866;50.748;12.630;2023-08-24T07:16:34;7.60;;;3.60;;
26106;SDS011;13866;50.748;12.630;2023-08-24T07:19:00;6.47;;;3.87;;
26106;SDS011;13866;50.748;12.630;2023-08-24T07:21:25;12.93;;;3.50;;
26106;SDS011;13866;50.748;12.630;2023-08-24T07:23:51;3.37;;;2.70;;
26106;SDS011;13866;50.748;12.630;2023-08-24T07:26:17;5.40;;;3.40;;
26106;SDS011;13866;50.748;12.630;2023-08-24T07:28:42;7.03;;;3.23;;
26106;SDS011;13866;50.748;12.630;2023-08-24T07:31:11;3.30;;;3.10;;
26106;SDS011;13866;50.748;12.630;2023-08-24T07:33:37;3.47;;;3.27;;
26106;SDS011;13866;50.748;12.630;2023-08-24T07:36:08;7.40;;;3.87;;
26106;SDS011;13866;50.748;12.630;2023-08-24T07:38:34;2.67;;;2.53;;
26106;SDS011;13866;50.748;12.630;2023-08-24T07:41:00;2.57;;;2.47;;
26106;SDS011;13866;50.748;12.630;2023-08-24T07:43:25;3.20;;;3.10;;
26106;SDS011;13866;50.748;12.630;2023-08-24T07:45:51;2.83;;;2.57;;
26106;SDS011;13866;50.748;12.630;2023-08-24T07:48:17;6.77;;;3.50;;
26106;SDS011;13866;50.748;12.630;2023-08-24T07:50:43;5.23;;;2.77;;
26106;SDS011;13866;50.748;12.630;2023-08-24T07:53:08;3.40;;;3.30;;
26106;SDS011;13866;50.748;12.630;2023-08-24T07:55:34;3.27;;;3.03;;
26106;SDS011;13866;50.748;12.630;2023-08-24T07:57:59;2.57;;;2.47;;
26106;SDS011;13866;50.748;12.630;2023-08-24T08:00:25;2.67;;;2.47;;
26106;SDS011;13866;50.748;12.630;2023-08-24T08:02:51;3.33;;;2.93;;
26106;SDS011;13866;50.748;12.630;2023-08-24T08:05:19;3.10;;;2.30;;
26106;SDS011;13866;50.748;12.630;2023-08-24T08:07:45;6.80;;;2.33;;
26106;SDS011;13866;50.748;12.630;2023-08-24T08:10:11;11.13;;;2.70;;
26106;SDS011;13866;50.748;12.630;2023-08-24T08:12:37;5.50;;;2.33;;
26106;SDS011;13866;50.748;12.630;2023-08-24T08:15:02;3.70;;;2.47;;
26106;SDS011;13866;50.748;12.630;2023-08-24T08:17:28;4.03;;;2.60;;
26106;SDS011;13866;50.748;12.630;2023-08-24T08:19:55;4.90;;;2.73;;
26106;SDS011;13866;50.748;12.630;2023-08-24T08:22:21;6.47;;;2.63;;
26106;SDS011;13866;50.748;12.630;2023-08-24T08:24:47;15.70;;;3.00;;
26106;SDS011;13866;50.748;12.630;2023-08-24T08:27:12;2.67;;;2.60;;
26106;SDS011;13866;50.748;12.630;2023-08-24T08:29:38;3.40;;;2.20;;
26106;SDS011;13866;50.748;12.630;2023-08-24T08:32:04;3.03;;;2.80;;
26106;SDS011;13866;50.748;12.630;2023-08-24T08:34:30;5.80;;;2.60;;
26106;SDS011;13866;50.748;12.630;2023-08-24T08:36:56;14.63;;;2.40;;
26106;SDS011;13866;50.748;12.630;2023-08-24T08:39:22;3.07;;;2.90;;
26106;SDS011;13866;50.748;12.630;2023-08-24T08:41:48;2.47;;;2.27;;
26106;SDS011;13866;50.748;12.630;2023-08-24T08:44:14;2.10;;;2.00;;
26106;SDS011;13866;50.748;12.630;2023-08-24T08:46:40;17.93;;;3.20;;
26106;SDS011;13866;50.748;12.630;2023-08-24T08:49:07;2.07;;;2.07;;
26106;SDS011;13866;50.748;12.630;2023-08-24T08:51:35;4.97;;;2.47;;
26106;SDS011;13866;50.748;12.630;2023-08-24T08:54:02;2.97;;;2.33;;
26106;SDS011;13866;50.748;12.630;2023-08-24T08:56:30;6.67;;;3.27;;
26106;SDS011;13866;50.748;12.630;2023-08-24T08:58:56;1.67;;;1.67;;
26106;SDS011;13866;50.748;12.630;2023-08-24T09:01:25;2.73;;;2.53;;
26106;SDS011;13866;50.748;12.630;2023-08-24T09:03:51;2.60;;;2.50;;
26106;SDS011;13866;50.748;12.630;2023-08-24T09:06:17;4.07;;;2.60;;
26106;SDS011;13866;50.748;12.630;2023-08-24T09:08:43;6.43;;;2.57;;
26106;SDS011;13866;50.748;12.630;2023-08-24T09:11:09;2.50;;;2.40;;
26106;SDS011;13866;50.748;12.630;2023-08-24T09:13:35;6.27;;;2.27;;
26106;SDS011;13866;50.748;12.630;2023-08-24T09:16:05;3.23;;;3.00;;
26106;SDS011;13866;50.748;12.630;2023-08-24T09:18:35;5.93;;;2.20;;
26106;SDS011;13866;50.748;12.630;2023-08-24T09:21:09;2.90;;;2.40;;
26106;SDS011;13866;50.748;12.630;2023-08-24T09:23:35;6.67;;;5.17;;
26106;SDS011;13866;50.748;12.630;2023-08-24T09:26:01;5.23;;;3.83;;
26106;SDS011;13866;50.748;12.630;2023-08-24T09:28:26;3.90;;;2.90;;
26106;SDS011;13866;50.748;12.630;2023-08-24T09:30:52;6.53;;;2.73;;
26106;SDS011;13866;50.748;12.630;2023-08-24T09:33:21;2.50;;;2.30;;
26106;SDS011;13866;50.748;12.630;2023-08-24T09:35:52;2.50;;;2.30;;
26106;SDS011;13866;50.748;12.630;2023-08-24T09:38:21;8.30;;;2.80;;
26106;SDS011;13866;50.748;12.630;2023-08-24T09:40:51;2.70;;;2.60;;
26106;SDS011;13866;50.748;12.630;2023-08-24T09:43:21;3.70;;;2.30;;
26106;SDS011;13866;50.748;12.630;2023-08-24T09:45:48;3.10;;;2.90;;
26106;SDS011;13866;50.748;12.630;2023-08-24T09:48:15;4.53;;;2.93;;
26106;SDS011;13866;50.748;12.630;2023-08-24T09:50:42;7.47;;;2.60;;
26106;SDS011;13866;50.748;12.630;2023-08-24T09:53:10;5.07;;;2.53;;
26106;SDS011;13866;50.748;12.630;2023-08-24T09:55:48;2.80;;;2.70;;
26106;SDS011;13866;50.748;12.630;2023-08-24T09:58:19;2.47;;;1.90;;
26106;SDS011;13866;50.748;12.630;2023-08-24T10:00:45;21.53;;;2.60;;
26106;SDS011;13866;50.748;12.630;2023-08-24T10:03:12;3.10;;;2.90;;
26106;SDS011;13866;50.748;12.630;2023-08-24T10:05:45;2.33;;;2.23;;
26106;SDS011;13866;50.748;12.630;2023-08-24T10:08:26;4.20;;;2.80;;
26106;SDS011;13866;50.748;12.630;2023-08-24T10:10:55;8.83;;;3.80;;
26106;SDS011;13866;50.748;12.630;2023-08-24T10:13:36;3.83;;;2.70;;
26106;SDS011;13866;50.748;12.630;2023-08-24T10:16:22;4.63;;;2.63;;
26106;SDS011;13866;50.748;12.630;2023-08-24T10:18:49;8.53;;;3.00;;
26106;SDS011;13866;50.748;12.630;2023-08-24T10:21:16;6.33;;;3.40;;
26106;SDS011;13866;50.748;12.630;2023-08-24T10:23:42;2.73;;;2.53;;
26106;SDS011;13866;50.748;12.630;2023-08-24T10:26:10;2.50;;;2.50;;
26106;SDS011;13866;50.748;12.630;2023-08-24T10:28:38;2.63;;;2.53;;
26106;SDS011;13866;50.748;12.630;2023-08-24T10:31:04;4.63;;;3.20;;
26106;SDS011;13866;50.748;12.630;2023-08-24T10:33:30;3.30;;;2.30;;
26106;SDS011;13866;50.748;12.630;2023-08-24T10:35:59;2.67;;;2.47;;
26106;SDS011;13866;50.748;12.630;2023-08-24T10:38:25;3.80;;;2.90;;
26106;SDS011;13866;50.748;12.630;2023-08-24T10:41:02;8.93;;;3.37;;
26106;SDS011;13866;50.748;12.630;2023-08-24T10:43:29;3.33;;;3.03;;
26106;SDS011;13866;50.748;12.630;2023-08-24T10:45:58;3.47;;;3.10;;
26106;SDS011;13866;50.748;12.630;2023-08-24T10:48:26;3.23;;;2.90;;
26106;SDS011;13866;50.748;12.630;2023-08-24T10:56:30;5.87;;;3.10;;
26106;SDS011;13866;50.748;12.630;2023-08-24T10:59:11;4.03;;;3.83;;
26106;SDS011;13866;50.748;12.630;2023-08-24T11:01:41;4.53;;;3.10;;
26106;SDS011;13866;50.748;12.630;2023-08-24T11:04:08;3.07;;;2.83;;
26106;SDS011;13866;50.748;12.630;2023-08-24T11:06:50;2.50;;;2.50;;
26106;SDS011;13866;50.748;12.630;2023-08-24T11:09:17;3.27;;;3.03;;
26106;SDS011;13866;50.748;12.630;2023-08-24T11:11:43;3.00;;;2.80;;
26106;SDS011;13866;50.748;12.630;2023-08-24T11:14:24;2.87;;;2.77;;
26106;SDS011;13866;50.748;12.630;2023-08-24T11:17:00;4.93;;;2.90;;
26106;SDS011;13866;50.748;12.630;2023-08-24T11:19:27;2.63;;;2.53;;
26106;SDS011;13866;50.748;12.630;2023-08-24T11:21:53;3.53;;;2.63;;
26106;SDS011;13866;50.748;12.630;2023-08-24T11:24:18;2.27;;;2.17;;
26106;SDS011;13866;50.748;12.630;2023-08-24T11:26:47;12.23;;;3.60;;
26106;SDS011;13866;50.748;12.630;2023-08-24T11:29:14;11.40;;;3.10;;
26106;SDS011;13866;50.748;12.630;2023-08-24T11:31:43;4.57;;;2.83;;
26106;SDS011;13866;50.748;12.630;2023-08-24T11:34:14;2.70;;;2.70;;
26106;SDS011;13866;50.748;12.630;2023-08-24T11:36:44;8.63;;;2.70;;
26106;SDS011;13866;50.748;12.630;2023-08-24T11:39:15;2.87;;;2.77;;
26106;SDS011;13866;50.748;12.630;2023-08-24T11:41:42;3.03;;;2.97;;
26106;SDS011;13866;50.748;12.630;2023-08-24T11:44:09;2.77;;;2.57;;
26106;SDS011;13866;50.748;12.630;2023-08-24T11:46:35;7.40;;;2.70;;
26106;SDS011;13866;50.748;12.630;2023-08-24T11:49:04;3.00;;;2.40;;
26106;SDS011;13866;50.748;12.630;2023-08-24T11:51:30;3.80;;;3.63;;
26106;SDS011;13866;50.748;12.630;2023-08-24T11:53:58;3.23;;;3.03;;
26106;SDS011;13866;50.748;12.630;2023-08-24T11:56:24;4.67;;;2.70;;
26106;SDS011;13866;50.748;12.630;2023-08-24T11:58:50;2.43;;;2.33;;
26106;SDS011;13866;50.748;12.630;2023-08-24T12:01:16;3.17;;;2.83;;
26106;SDS011;13866;50.748;12.630;2023-08-24T12:03:42;7.70;;;2.60;;
26106;SDS011;13866;50.748;12.630;2023-08-24T12:06:14;2.90;;;2.80;;
26106;SDS011;13866;50.748;12.630;2023-08-24T12:08:41;2.30;;;2.30;;
26106;SDS011;13866;50.748;12.630;2023-08-24T12:11:19;2.63;;;2.43;;
26106;SDS011;13866;50.748;12.630;2023-08-24T12:13:50;5.90;;;2.03;;
26106;SDS011;13866;50.748;12.630;2023-08-24T12:16:17;2.83;;;2.63;;
26106;SDS011;13866;50.748;12.630;2023-08-24T12:18:51;5.30;;;3.17;;
26106;SDS011;13866;50.748;12.630;2023-08-24T12:21:18;2.70;;;2.60;;
26106;SDS011;13866;50.748;12.630;2023-08-24T12:23:45;2.67;;;2.57;;
26106;SDS011;13866;50.748;12.630;2023-08-24T12:26:20;2.90;;;2.63;;
26106;SDS011;13866;50.748;12.630;2023-08-24T12:28:49;2.87;;;2.77;;
26106;SDS011;13866;50.748;12.630;2023-08-24T12:31:18;4.10;;;2.83;;
26106;SDS011;13866;50.748;12.630;2023-08-24T12:33:44;3.17;;;2.97;;
26106;SDS011;13866;50.748;12.630;2023-08-24T12:36:10;2.93;;;2.40;;
26106;SDS011;13866;50.748;12.630;2023-08-24T12:38:36;2.83;;;2.63;;
26106;SDS011;13866;50.748;12.630;2023-08-24T12:41:02;4.00;;;2.80;;
26106;SDS011;13866;50.748;12.630;2023-08-24T12:43:27;5.50;;;2.47;;
26106;SDS011;13866;50.748;12.630;2023-08-24T12:45:53;3.83;;;2.87;;
26106;SDS011;13866;50.748;12.630;2023-08-24T12:48:18;3.10;;;2.90;;
26106;SDS011;13866;50.748;12.630;2023-08-24T12:50:44;5.80;;;3.33;;
26106;SDS011;13866;50.748;12.630;2023-08-24T12:53:09;2.60;;;2.50;;
26106;SDS011;13866;50.748;12.630;2023-08-24T12:55:36;3.27;;;2.93;;
26106;SDS011;13866;50.748;12.630;2023-08-24T12:58:03;3.80;;;2.70;;
26106;SDS011;13866;50.748;12.630;2023-08-24T13:00:29;2.90;;;2.80;;
26106;SDS011;13866;50.748;12.630;2023-08-24T13:02:54;4.80;;;3.73;;
26106;SDS011;13866;50.748;12.630;2023-08-24T13:05:20;3.07;;;2.77;;
26106;SDS011;13866;50.748;12.630;2023-08-24T13:07:46;3.07;;;2.40;;
26106;SDS011;13866;50.748;12.630;2023-08-24T13:10:11;11.33;;;2.97;;
26106;SDS011;13866;50.748;12.630;2023-08-24T13:12:37;6.63;;;3.00;;
26106;SDS011;13866;50.748;12.630;2023-08-24T13:15:03;3.60;;;3.43;;
26106;SDS011;13866;50.748;12.630;2023-08-24T13:17:32;4.03;;;2.73;;
26106;SDS011;13866;50.748;12.630;2023-08-24T13:19:58;3.30;;;3.13;;
26106;SDS011;13866;50.748;12.630;2023-08-24T13:22:23;2.70;;;2.60;;
26106;SDS011;13866;50.748;12.630;2023-08-24T13:24:49;3.87;;;3.43;;
26106;SDS011;13866;50.748;12.630;2023-08-24T13:27:14;3.20;;;3.10;;
26106;SDS011;13866;50.748;12.630;2023-08-24T13:29:40;3.17;;;2.97;;
26106;SDS011;13866;50.748;12.630;2023-08-24T13:32:06;6.73;;;3.20;;
26106;SDS011;13866;50.748;12.630;2023-08-24T13:34:32;3.17;;;3.00;;
26106;SDS011;13866;50.748;12.630;2023-08-24T13:36:58;4.53;;;3.10;;
26106;SDS011;13866;50.748;12.630;2023-08-24T13:39:27;3.57;;;3.23;;
26106;SDS011;13866;50.748;12.630;2023-08-24T13:41:56;3.53;;;3.33;;
26106;SDS011;13866;50.748;12.630;2023-08-24T13:44:21;7.10;;;3.47;;
26106;SDS011;13866;50.748;12.630;2023-08-24T13:46:47;3.50;;;3.17;;
26106;SDS011;13866;50.748;12.630;2023-08-24T13:49:13;2.80;;;2.57;;
26106;SDS011;13866;50.748;12.630;2023-08-24T13:51:38;3.53;;;2.73;;
26106;SDS011;13866;50.748;12.630;2023-08-24T13:54:13;10.00;;;2.90;;
26106;SDS011;13866;50.748;12.630;2023-08-24T13:56:43;2.90;;;2.80;;
26106;SDS011;13866;50.748;12.630;2023-08-24T13:59:13;2.90;;;2.60;;
26106;SDS011;13866;50.748;12.630;2023-08-24T14:01:39;8.47;;;3.10;;
26106;SDS011;13866;50.748;12.630;2023-08-24T14:04:05;5.63;;;2.80;;
26106;SDS011;13866;50.748;12.630;2023-08-24T14:06:32;3.23;;;2.83;;
26106;SDS011;13866;50.748;12.630;2023-08-24T14:08:59;14.93;;;3.07;;
26106;SDS011;13866;50.748;12.630;2023-08-24T14:11:25;2.97;;;2.77;;
26106;SDS011;13866;50.748;12.630;2023-08-24T14:13:52;3.40;;;3.20;;
26106;SDS011;13866;50.748;12.630;2023-08-24T14:16:18;2.90;;;2.50;;
26106;SDS011;13866;50.748;12.630;2023-08-24T14:18:44;4.43;;;3.23;;
26106;SDS011;13866;50.748;12.630;2023-08-24T14:21:10;3.13;;;2.80;;
26106;SDS011;13866;50.748;12.630;2023-08-24T14:23:36;7.03;;;2.97;;
26106;SDS011;13866;50.748;12.630;2023-08-24T14:26:01;7.00;;;2.90;;
26106;SDS011;13866;50.748;12.630;2023-08-24T14:31:19;3.70;;;2.60;;
26106;SDS011;13866;50.748;12.630;2023-08-24T14:33:46;7.80;;;2.93;;
26106;SDS011;13866;50.748;12.630;2023-08-24T14:36:11;3.03;;;2.73;;
26106;SDS011;13866;50.748;12.630;2023-08-24T14:38:40;4.73;;;3.10;;
26106;SDS011;13866;50.748;12.630;2023-08-24T14:41:07;2.70;;;2.60;;
26106;SDS011;13866;50.748;12.630;2023-08-24T14:43:36;3.33;;;3.10;;
26106;SDS011;13866;50.748;12.630;2023-08-24T14:46:02;4.60;;;2.60;;
26106;SDS011;13866;50.748;12.630;2023-08-24T14:48:28;4.97;;;3.03;;